createdAt,value
2019-04-01T00:00:47.343Z,19.53
2019-04-01T00:03:49.447Z,16.77
2019-04-01T00:06:51.448Z,20.20
2019-04-01T00:09:52.620Z,17.87
2019-04-01T00:12:55.824Z,17.77
2019-04-01T00:16:06.996Z,15.57
2019-04-01T00:19:08.009Z,18.00
2019-04-01T00:22:19.156Z,22.77
2019-04-01T00:25:20.136Z,21.50
2019-04-01T00:28:30.114Z,20.90
2019-04-01T00:31:41.235Z,17.10
2019-04-01T00:34:42.424Z,16.57
2019-04-01T00:37:43.761Z,17.80
2019-04-01T00:40:45.731Z,17.57
2019-04-01T00:44:07.741Z,21.40
2019-04-01T00:47:14.176Z,16.20
2019-04-01T00:50:17.499Z,15.60
2019-04-01T00:53:19.284Z,16.77
2019-04-01T00:56:20.665Z,15.13
2019-04-01T00:59:21.679Z,16.03
2019-04-01T01:02:22.803Z,17.40
2019-04-01T01:05:25.027Z,15.57
2019-04-01T01:08:26.250Z,17.03
2019-04-01T01:11:28.310Z,15.60
2019-04-01T01:14:29.623Z,18.63
2019-04-01T01:17:30.535Z,17.30
2019-04-01T01:20:32.440Z,22.23
2019-04-01T01:23:34.448Z,16.13
2019-04-01T01:26:36.376Z,14.90
2019-04-01T01:29:38.334Z,17.37
2019-04-01T01:32:40.440Z,18.70
2019-04-01T01:35:42.474Z,17.73
2019-04-01T01:38:44.380Z,15.17
2019-04-01T01:41:46.559Z,15.97
2019-04-01T01:44:48.541Z,23.67
2019-04-01T01:47:50.738Z,14.63
2019-04-01T01:50:51.764Z,16.80
2019-04-01T01:53:52.755Z,16.50
2019-04-01T01:57:03.914Z,15.60
2019-04-01T02:00:05.920Z,17.10
2019-04-01T02:03:07.803Z,18.40
2019-04-01T02:06:09.780Z,16.13
2019-04-01T02:09:11.261Z,16.57
2019-04-01T02:12:12.371Z,16.20
2019-04-01T02:15:13.488Z,15.70
2019-04-01T02:18:14.763Z,17.57
2019-04-01T02:21:16.717Z,17.10
2019-04-01T02:24:17.958Z,17.70
2019-04-01T02:27:28.871Z,16.07
2019-04-01T02:30:30.995Z,16.63
2019-04-01T02:33:33.151Z,15.50
2019-04-01T02:36:34.291Z,15.43
2019-04-01T02:39:36.211Z,23.80
2019-04-01T02:42:39.411Z,15.53
2019-04-01T02:45:40.704Z,17.23
2019-04-01T02:48:41.988Z,15.23
2019-04-01T02:51:43.196Z,15.60
2019-04-01T02:54:46.293Z,14.83
2019-04-01T02:57:47.552Z,16.33
2019-04-01T03:00:49.584Z,16.33
2019-04-01T03:03:51.685Z,19.23
2019-04-01T03:06:53.752Z,18.90
2019-04-01T03:09:55.081Z,16.07
2019-04-01T03:12:52.069Z,18.60
2019-04-01T03:15:53.981Z,16.63
2019-04-01T03:18:56.069Z,27.10
2019-04-01T03:21:57.228Z,18.60
2019-04-01T03:24:58.405Z,23.60
2019-04-01T03:28:00.461Z,21.10
2019-04-01T03:31:02.457Z,21.63
2019-04-01T03:34:04.604Z,22.90
2019-04-01T03:36:52.069Z,16.20
2019-04-01T03:39:54.064Z,19.20
2019-04-01T03:42:55.009Z,18.53
2019-04-01T03:46:04.985Z,16.63
2019-04-01T03:49:16.171Z,19.47
2019-04-01T03:52:18.102Z,16.43
2019-04-01T03:55:19.987Z,16.67
2019-04-01T03:58:21.800Z,17.20
2019-04-01T04:01:24.024Z,20.17
2019-04-01T04:04:24.864Z,18.10
2019-04-01T04:07:36.045Z,19.00
2019-04-01T04:10:38.241Z,18.97
2019-04-01T04:13:39.232Z,18.80
2019-04-01T04:16:40.461Z,25.63
2019-04-01T04:19:42.400Z,20.13
2019-04-01T04:22:43.429Z,20.80
2019-04-01T04:25:53.651Z,17.37
2019-04-01T04:28:55.657Z,19.73
2019-04-01T04:31:57.567Z,18.17
2019-04-01T04:34:59.526Z,20.07
2019-04-01T04:38:01.665Z,18.57
2019-04-01T04:41:03.724Z,16.67
2019-04-01T04:44:05.632Z,23.10
2019-04-01T04:47:06.812Z,18.40
2019-04-01T04:50:08.426Z,29.13
2019-04-01T04:53:10.364Z,18.87
2019-04-01T04:56:11.610Z,25.40
2019-04-01T04:59:21.768Z,18.30
2019-04-01T05:02:24.613Z,21.43
2019-04-01T05:05:26.156Z,18.47
2019-04-01T05:08:28.096Z,20.13
2019-04-01T05:11:30.132Z,20.63
2019-04-01T05:14:32.276Z,18.87
2019-04-01T05:17:34.624Z,19.80
2019-04-01T05:20:36.545Z,21.83
2019-04-01T05:23:38.875Z,22.40
2019-04-01T05:26:40.687Z,19.57
2019-04-01T05:29:41.815Z,18.40
2019-04-01T05:32:51.913Z,21.83
2019-04-01T05:35:52.999Z,19.27
2019-04-01T05:38:55.095Z,19.80
2019-04-01T05:42:06.153Z,24.33
2019-04-01T05:45:08.309Z,20.90
2019-04-01T05:48:19.580Z,23.43
2019-04-01T05:51:21.539Z,16.63
2019-04-01T05:54:28.728Z,19.00
2019-04-01T05:57:31.011Z,24.43
2019-04-01T06:04:01.645Z,19.83
2019-04-01T06:07:03.264Z,22.07
2019-04-01T06:10:04.500Z,21.93
2019-04-01T06:13:11.717Z,25.73
2019-04-01T06:16:13.588Z,19.60
2019-04-01T06:19:14.686Z,20.23
2019-04-01T06:22:24.927Z,22.30
2019-04-01T06:25:26.039Z,22.00
2019-04-01T06:28:33.132Z,19.33
2019-04-01T06:31:34.161Z,19.30
2019-04-01T06:34:35.335Z,21.53
2019-04-01T06:37:46.480Z,21.40
2019-04-01T06:40:47.547Z,22.10
2019-04-01T06:43:58.907Z,22.83
2019-04-01T06:47:01.115Z,17.90
2019-04-01T06:50:02.248Z,17.83
2019-04-01T06:53:12.217Z,30.27
2019-04-01T06:56:23.256Z,21.90
2019-04-01T06:59:25.287Z,21.50
2019-04-01T07:02:26.230Z,24.43
2019-04-01T07:05:37.252Z,30.73
2019-04-01T07:08:39.308Z,23.20
2019-04-01T07:11:40.399Z,19.73
2019-04-01T07:14:51.369Z,23.73
2019-04-01T07:17:53.447Z,25.97
2019-04-01T07:20:55.501Z,22.30
2019-04-01T07:23:57.520Z,27.53
2019-04-01T07:26:59.604Z,19.73
2019-04-01T07:30:00.856Z,23.13
2019-04-01T07:33:01.928Z,18.03
2019-04-01T07:36:04.047Z,21.63
2019-04-01T07:39:06.182Z,18.47
2019-04-01T07:42:08.104Z,17.17
2019-04-01T07:45:10.195Z,17.93
2019-04-01T07:48:12.664Z,20.47
2019-04-01T07:51:14.351Z,17.27
2019-04-01T07:54:18.530Z,19.10
2019-04-01T07:57:19.627Z,24.30
2019-04-01T08:00:22.463Z,16.63
2019-04-01T08:03:09.988Z,17.17
2019-04-01T08:06:11.640Z,17.10
2019-04-01T08:09:22.703Z,18.83
2019-04-01T08:12:33.920Z,20.73
2019-04-01T08:15:35.700Z,19.40
2019-04-01T08:18:37.100Z,19.90
2019-04-01T08:21:39.048Z,19.30
2019-04-01T08:24:40.110Z,24.33
2019-04-01T08:27:51.433Z,23.87
2019-04-01T08:30:53.336Z,20.40
2019-04-01T08:33:54.392Z,17.37
2019-04-01T08:37:01.411Z,23.10
2019-04-01T08:40:03.619Z,17.73
2019-04-01T08:42:51.074Z,16.40
2019-04-01T08:45:52.536Z,19.67
2019-04-01T08:48:55.627Z,20.20
2019-04-01T08:51:57.772Z,24.97
2019-04-01T08:54:59.781Z,16.23
2019-04-01T08:58:00.808Z,17.73
2019-04-01T09:01:02.779Z,37.80
2019-04-01T09:04:04.813Z,19.03
2019-04-01T09:07:05.924Z,19.83
2019-04-01T09:10:16.321Z,19.37
2019-04-01T09:13:18.308Z,21.50
2019-04-01T09:16:20.447Z,21.50
2019-04-01T09:19:21.605Z,21.50
2019-04-01T09:22:28.603Z,21.20
2019-04-01T09:25:30.627Z,20.50
2019-04-01T09:28:32.696Z,20.50
2019-04-01T09:31:33.780Z,18.00
2019-04-01T09:34:40.989Z,22.10
2019-04-01T09:37:42.968Z,22.63
2019-04-01T09:40:44.992Z,20.30
2019-04-01T09:43:45.988Z,20.70
2019-04-01T09:46:57.300Z,21.23
2019-04-01T09:49:59.548Z,26.20
2019-04-01T09:53:01.494Z,25.93
2019-04-01T09:56:02.673Z,20.40
2019-04-01T09:59:03.933Z,18.93
2019-04-01T10:02:06.129Z,20.10
2019-04-01T10:05:08.287Z,20.13
2019-04-01T10:08:10.200Z,21.30
2019-04-01T10:11:12.867Z,20.33
2019-04-01T10:14:14.384Z,24.47
2019-04-01T10:17:25.575Z,19.73
2019-04-01T10:20:27.744Z,20.33
2019-04-01T10:23:28.916Z,25.20
2019-04-01T10:26:36.067Z,25.17
2019-04-01T10:29:38.052Z,25.97
2019-04-01T10:32:39.389Z,22.43
2019-04-01T10:35:47.406Z,22.43
2019-04-01T10:38:48.548Z,26.83
2019-04-01T10:41:59.516Z,31.13
2019-04-01T10:45:01.624Z,26.17
2019-04-01T10:48:03.991Z,30.80
2019-04-01T10:51:05.971Z,23.43
2019-04-01T10:54:07.804Z,30.60
2019-04-01T10:57:08.962Z,20.40
2019-04-01T11:00:19.059Z,22.57
2019-04-01T11:03:20.306Z,27.00
2019-04-01T11:06:21.783Z,25.73
2019-04-01T11:09:37.632Z,26.23
2019-04-01T11:12:26.739Z,26.70
2019-04-01T11:15:33.967Z,26.87
2019-04-01T11:18:35.168Z,25.13
2019-04-01T11:21:37.260Z,29.33
2019-04-01T11:24:39.148Z,26.10
2019-04-01T11:27:41.227Z,26.77
2019-04-01T11:30:43.189Z,25.03
2019-04-01T11:33:45.265Z,26.30
2019-04-01T11:36:47.232Z,26.37
2019-04-01T11:39:49.168Z,21.77
2019-04-01T11:42:52.891Z,26.50
2019-04-01T11:45:54.720Z,32.83
2019-04-01T11:48:56.619Z,25.83
2019-04-01T11:51:57.635Z,22.20
2019-04-01T11:55:09.117Z,31.60
2019-04-01T11:58:11.721Z,20.63
2019-04-01T12:01:13.718Z,24.37
2019-04-01T12:04:15.819Z,19.67
2019-04-01T12:07:17.050Z,26.00
2019-04-01T12:10:28.040Z,27.60
2019-04-01T12:13:29.827Z,23.97
2019-04-01T12:16:17.299Z,24.93
2019-04-01T12:19:18.687Z,26.00
2019-04-01T12:22:20.677Z,32.40
2019-04-01T12:25:22.655Z,47.67
2019-04-01T12:28:23.839Z,26.13
2019-04-01T12:31:25.722Z,26.97
2019-04-01T12:34:27.753Z,33.00
2019-04-01T12:37:30.164Z,29.90
2019-04-01T12:40:32.094Z,22.83
2019-04-01T12:43:34.026Z,28.57
2019-04-01T12:46:42.656Z,26.10
2019-04-01T12:49:53.244Z,22.50
2019-04-01T12:53:03.477Z,24.67
2019-04-01T12:56:05.611Z,28.40
2019-04-01T12:59:07.612Z,32.63
2019-04-01T13:02:09.529Z,34.47
2019-04-01T13:05:11.703Z,33.43
2019-04-01T13:08:13.993Z,25.70
2019-04-01T13:11:16.080Z,28.70
2019-04-01T13:14:18.004Z,28.83
2019-04-01T13:17:21.038Z,23.07
2019-04-01T13:20:36.634Z,24.33
2019-04-01T13:23:26.949Z,24.50
2019-04-01T13:26:28.872Z,47.73
2019-04-01T13:29:31.071Z,27.93
2019-04-01T13:32:32.211Z,29.93
2019-04-01T13:35:34.228Z,27.47
2019-04-01T13:38:36.160Z,24.17
2019-04-01T13:41:42.642Z,26.20
2019-04-01T13:44:41.417Z,32.30
2019-04-01T13:47:43.665Z,21.97
2019-04-01T13:50:45.713Z,34.33
2019-04-01T13:53:47.809Z,23.40
2019-04-01T13:56:48.933Z,19.90
2019-04-01T13:59:51.908Z,25.30
2019-04-01T14:02:53.335Z,22.80
2019-04-01T14:05:55.439Z,24.17
2019-04-01T14:08:56.461Z,25.77
2019-04-01T14:12:03.548Z,28.13
2019-04-01T14:15:05.564Z,29.97
2019-04-01T14:18:06.676Z,29.23
2019-04-01T14:21:16.545Z,27.87
2019-04-01T14:24:18.059Z,30.97
2019-04-01T14:27:20.012Z,28.13
2019-04-01T14:30:21.264Z,24.03
2019-04-01T14:33:32.713Z,19.47
2019-04-01T14:36:34.445Z,23.53
2019-04-01T14:39:36.261Z,21.77
2019-04-01T14:42:39.668Z,20.23
2019-04-01T14:45:41.332Z,22.27
2019-04-01T14:48:48.419Z,19.13
2019-04-01T14:51:50.619Z,20.90
2019-04-01T14:54:54.980Z,21.40
2019-04-01T14:58:00.246Z,22.00
2019-04-01T15:01:01.317Z,19.60
2019-04-01T15:04:03.386Z,16.97
2019-04-01T15:07:04.379Z,22.67
2019-04-01T15:10:15.189Z,34.23
2019-04-01T15:13:17.888Z,16.80
2019-04-01T15:16:19.024Z,18.00
2019-04-01T15:19:29.576Z,18.27
2019-04-01T15:22:31.615Z,17.80
2019-04-01T15:25:32.602Z,16.50
2019-04-01T15:28:43.613Z,16.40
2019-04-01T15:31:45.799Z,18.77
2019-04-01T15:34:47.889Z,17.00
2019-04-01T15:37:48.896Z,21.37
2019-04-01T15:40:58.294Z,16.37
2019-04-01T15:43:45.431Z,16.60
2019-04-01T15:46:46.920Z,23.37
2019-04-01T15:49:49.025Z,19.60
2019-04-01T15:52:50.231Z,19.17
2019-04-01T15:55:52.220Z,20.07
2019-04-01T15:58:54.377Z,23.70
2019-04-01T16:01:56.387Z,18.67
2019-04-01T16:04:58.488Z,22.03
2019-04-01T16:07:59.480Z,21.47
2019-04-01T16:11:06.719Z,20.67
2019-04-01T16:14:08.872Z,24.00
2019-04-01T16:17:10.963Z,19.90
2019-04-01T16:20:13.111Z,18.17
2019-04-01T16:23:14.115Z,17.37
2019-04-01T16:26:25.226Z,19.23
2019-04-01T16:29:27.247Z,14.33
2019-04-01T16:32:29.214Z,20.30
2019-04-01T16:35:33.415Z,18.03
2019-04-01T16:38:35.400Z,17.27
2019-04-01T16:41:36.699Z,16.27
2019-04-01T16:44:37.922Z,18.70
2019-04-01T16:47:49.060Z,19.60
2019-04-01T16:50:51.157Z,23.03
2019-04-01T16:53:55.972Z,18.93
2019-04-01T16:56:56.115Z,14.20
2019-04-01T16:59:49.531Z,33.53
2019-04-01T17:02:51.811Z,67.10
2019-04-01T17:05:53.248Z,35.50
2019-04-01T17:09:00.390Z,30.90
2019-04-01T17:12:02.619Z,42.20
2019-04-01T17:14:50.044Z,31.60
2019-04-01T17:17:51.626Z,26.50
2019-04-01T17:20:53.732Z,19.30
2019-04-01T17:23:54.956Z,18.90
2019-04-01T17:27:11.145Z,24.20
2019-04-01T17:30:13.076Z,16.70
2019-04-01T17:33:14.290Z,19.50
2019-04-01T17:36:15.888Z,20.53
2019-04-01T17:39:17.436Z,18.30
2019-04-01T17:42:19.497Z,21.83
2019-04-01T17:45:21.155Z,14.90
2019-04-01T17:48:22.711Z,17.60
2019-04-01T17:51:24.046Z,16.67
2019-04-01T17:54:36.170Z,18.83
2019-04-01T17:57:37.903Z,15.20
2019-04-01T18:00:42.439Z,23.40
2019-04-01T18:03:44.272Z,16.60
2019-04-01T18:06:45.309Z,14.83
2019-04-01T18:09:47.241Z,16.47
2019-04-01T18:12:48.300Z,15.77
2019-04-01T18:15:49.340Z,14.40
2019-04-01T18:18:59.672Z,16.83
2019-04-01T18:22:00.776Z,15.20
2019-04-01T18:25:02.986Z,14.10
2019-04-01T18:28:04.193Z,15.20
2019-04-01T18:31:06.216Z,16.07
2019-04-01T18:34:07.580Z,14.30
2019-04-01T18:37:21.083Z,12.80
2019-04-01T18:40:32.483Z,15.10
2019-04-01T18:43:26.188Z,16.13
2019-04-01T18:46:27.272Z,21.87
2019-04-01T18:49:34.652Z,21.63
2019-04-01T18:52:38.220Z,22.55
2019-04-01T18:55:40.199Z,18.13
2019-04-01T18:58:41.314Z,24.23
2019-04-01T19:01:51.551Z,20.77
2019-04-01T19:04:53.527Z,19.60
2019-04-01T19:07:54.624Z,19.10
2019-04-01T19:11:05.836Z,21.37
2019-04-01T19:14:07.101Z,15.90
2019-04-01T19:17:09.224Z,16.90
2019-04-01T19:20:11.384Z,20.50
2019-04-01T19:23:13.447Z,22.23
2019-04-01T19:26:17.833Z,24.20
2019-04-01T19:29:19.663Z,43.97
2019-04-01T19:32:21.916Z,52.07
2019-04-01T19:35:23.966Z,27.30
2019-04-01T19:38:28.024Z,20.63
2019-04-01T19:41:30.172Z,50.03
2019-04-01T19:44:31.233Z,29.37
2019-04-01T19:47:34.160Z,26.67
2019-04-01T19:50:37.349Z,20.63
2019-04-01T19:53:39.590Z,26.30
2019-04-01T19:56:41.656Z,35.87
2019-04-01T19:59:44.190Z,21.67
2019-04-01T20:02:46.415Z,128.47
2019-04-01T20:05:49.923Z,105.03
2019-04-01T20:08:51.641Z,73.20
2019-04-01T20:11:52.930Z,32.97
2019-04-01T20:15:04.370Z,659.80
2019-04-01T20:18:07.090Z,432.07
2019-04-01T20:21:10.596Z,373.50
2019-04-01T20:24:12.633Z,248.00
2019-04-01T20:27:14.343Z,137.67
2019-04-01T20:30:16.835Z,237.83
2019-04-01T20:33:19.624Z,227.10
2019-04-01T20:36:28.421Z,524.27
2019-04-01T20:39:26.108Z,134.30
2019-04-01T20:42:28.227Z,217.03
2019-04-01T20:45:30.482Z,177.73
2019-04-01T20:48:33.243Z,178.07
2019-04-01T20:51:35.576Z,147.77
2019-04-01T20:54:37.463Z,108.03
2019-04-01T20:57:40.632Z,43.53
2019-04-01T21:00:43.622Z,47.07
2019-04-01T21:03:48.030Z,65.73
2019-04-01T21:06:50.158Z,37.20
2019-04-01T21:09:54.407Z,28.40
2019-04-01T21:12:56.519Z,24.27
2019-04-01T21:15:59.191Z,27.30
2019-04-01T21:19:01.765Z,21.67
2019-04-01T21:22:03.955Z,20.10
2019-04-01T21:25:05.869Z,14.97
2019-04-01T21:28:08.208Z,20.53
2019-04-01T21:31:10.440Z,17.20
2019-04-01T21:34:15.405Z,19.27
2019-04-01T21:37:19.367Z,18.23
2019-04-01T21:40:21.628Z,18.33
2019-04-01T21:43:33.548Z,17.10
2019-04-01T21:46:35.722Z,17.80
2019-04-01T21:49:37.934Z,17.87
2019-04-01T21:52:40.588Z,15.73
2019-04-01T21:55:42.933Z,14.97
2019-04-01T21:58:44.728Z,14.27
2019-04-01T22:01:46.936Z,14.27
2019-04-01T22:04:48.225Z,17.00
2019-04-01T22:07:50.276Z,14.80
2019-04-01T22:10:53.192Z,14.77
2019-04-01T22:13:56.089Z,13.50
2019-04-01T22:16:58.396Z,15.20
2019-04-01T22:20:00.312Z,21.50
2019-04-01T22:23:02.808Z,18.13
2019-04-01T22:26:04.763Z,14.97
2019-04-01T22:29:06.917Z,15.57
2019-04-01T22:32:09.832Z,14.50
2019-04-01T22:35:10.945Z,18.93
2019-04-01T22:38:24.383Z,18.90
2019-04-01T22:41:15.382Z,13.17
2019-04-01T22:44:17.362Z,15.40
2019-04-01T22:47:19.600Z,15.60
2019-04-01T22:50:20.508Z,13.70
2019-04-01T22:53:30.796Z,17.20
2019-04-01T22:56:41.955Z,19.23
2019-04-01T22:59:43.964Z,15.63
2019-04-01T23:02:45.947Z,17.83
2019-04-01T23:05:48.069Z,25.40
2019-04-01T23:08:50.149Z,13.97
2019-04-01T23:11:53.297Z,15.10
2019-04-01T23:14:56.116Z,17.20
2019-04-01T23:17:58.089Z,16.70
2019-04-01T23:20:59.348Z,14.70
2019-04-01T23:24:01.529Z,15.60
2019-04-01T23:27:03.555Z,14.80
2019-04-01T23:30:07.601Z,14.57
2019-04-01T23:33:08.819Z,16.80
2019-04-01T23:36:18.882Z,14.00
2019-04-01T23:39:21.032Z,14.10
2019-04-01T23:42:23.158Z,12.70
2019-04-01T23:45:24.131Z,13.80
2019-04-01T23:48:35.244Z,14.00
2019-04-01T23:51:37.320Z,13.40
2019-04-01T23:54:38.454Z,15.90
2019-04-01T23:57:40.678Z,15.43
